createdAt,value
2018-05-26T00:00:59.334Z,10.12
2018-05-26T00:01:59.811Z,10.10
2018-05-26T00:03:00.283Z,10.09
2018-05-26T00:04:00.756Z,10.07
2018-05-26T00:05:01.236Z,10.07
2018-05-26T00:06:01.715Z,10.04
2018-05-26T00:07:02.186Z,10.04
2018-05-26T00:08:02.655Z,10.02
2018-05-26T00:09:03.134Z,10.00
2018-05-26T00:10:03.656Z,10.00
2018-05-26T00:11:04.082Z,9.98
2018-05-26T00:12:04.558Z,9.97
2018-05-26T00:13:05.030Z,9.94
2018-05-26T00:14:05.504Z,9.95
2018-05-26T00:15:06.134Z,9.92
2018-05-26T00:16:06.456Z,9.91
2018-05-26T00:17:06.930Z,9.90
2018-05-26T00:18:07.405Z,9.89
2018-05-26T00:19:07.880Z,9.90
2018-05-26T00:20:08.406Z,9.88
2018-05-26T00:21:08.828Z,9.86
2018-05-26T00:22:09.302Z,9.86
2018-05-26T00:23:09.784Z,9.85
2018-05-26T00:24:10.249Z,9.84
2018-05-26T00:25:10.725Z,9.82
2018-05-26T00:26:11.201Z,9.80
2018-05-26T00:27:11.674Z,9.80
2018-05-26T00:28:12.145Z,9.80
2018-05-26T00:29:12.622Z,9.77
2018-05-26T00:30:13.095Z,9.76
2018-05-26T00:31:13.564Z,9.74
2018-05-26T00:32:14.036Z,9.73
2018-05-26T00:33:14.510Z,9.72
2018-05-26T00:34:14.983Z,9.70
2018-05-26T00:35:15.504Z,9.69
2018-05-26T00:36:15.926Z,9.68
2018-05-26T00:37:16.399Z,9.64
2018-05-26T00:38:16.871Z,9.64
2018-05-26T00:39:17.344Z,9.63
2018-05-26T00:40:17.813Z,9.60
2018-05-26T00:41:18.284Z,9.60
2018-05-26T00:42:18.755Z,9.57
2018-05-26T00:43:19.227Z,9.56
2018-05-26T00:44:19.696Z,9.54
2018-05-26T00:45:20.217Z,9.53
2018-05-26T00:46:20.639Z,9.52
2018-05-26T00:47:21.114Z,9.50
2018-05-26T00:48:21.581Z,9.47
2018-05-26T00:49:22.053Z,9.44
2018-05-26T00:50:22.522Z,9.44
2018-05-26T00:51:22.992Z,9.40
2018-05-26T00:52:23.464Z,9.36
2018-05-26T00:53:23.935Z,9.34
2018-05-26T00:54:24.407Z,9.32
2018-05-26T00:55:24.879Z,9.29
2018-05-26T00:56:25.348Z,9.27
2018-05-26T00:57:25.819Z,9.24
2018-05-26T00:58:26.295Z,9.24
2018-05-26T00:59:26.773Z,9.20
2018-05-26T01:00:27.291Z,9.18
2018-05-26T01:01:27.710Z,9.16
2018-05-26T01:02:28.180Z,9.14
2018-05-26T01:03:28.657Z,9.11
2018-05-26T01:04:29.125Z,9.10
2018-05-26T01:05:29.597Z,9.08
2018-05-26T01:06:30.071Z,9.06
2018-05-26T01:07:30.544Z,9.04
2018-05-26T01:08:31.020Z,9.00
2018-05-26T01:09:31.492Z,9.00
2018-05-26T01:10:32.014Z,8.96
2018-05-26T01:11:32.436Z,8.95
2018-05-26T01:12:32.909Z,8.93
2018-05-26T01:13:33.384Z,8.92
2018-05-26T01:14:33.858Z,8.91
2018-05-26T01:15:34.334Z,8.88
2018-05-26T01:16:34.806Z,8.86
2018-05-26T01:17:35.282Z,8.84
2018-05-26T01:18:35.754Z,8.84
2018-05-26T01:19:36.230Z,8.81
2018-05-26T01:20:36.703Z,8.80
2018-05-26T01:21:37.178Z,8.78
2018-05-26T01:22:37.653Z,8.77
2018-05-26T01:23:38.129Z,8.74
2018-05-26T01:24:38.603Z,8.74
2018-05-26T01:25:39.081Z,8.72
2018-05-26T01:26:39.550Z,8.71
2018-05-26T01:27:40.026Z,8.71
2018-05-26T01:28:40.499Z,8.70
2018-05-26T01:29:40.974Z,8.67
2018-05-26T01:30:41.449Z,8.66
2018-05-26T01:31:41.924Z,8.66
2018-05-26T01:32:42.395Z,8.66
2018-05-26T01:33:42.871Z,8.62
2018-05-26T01:34:43.344Z,8.62
2018-05-26T01:35:43.867Z,8.62
2018-05-26T01:36:44.289Z,8.58
2018-05-26T01:37:44.761Z,8.57
2018-05-26T01:38:45.238Z,8.57
2018-05-26T01:39:45.708Z,8.56
2018-05-26T01:40:46.180Z,8.55
2018-05-26T01:41:46.653Z,8.53
2018-05-26T01:42:47.126Z,8.53
2018-05-26T01:43:47.598Z,8.50
2018-05-26T01:44:48.068Z,8.50
2018-05-26T01:45:48.658Z,8.50
2018-05-26T01:46:49.011Z,8.48
2018-05-26T01:47:49.481Z,8.46
2018-05-26T01:48:49.953Z,8.47
2018-05-26T01:49:50.423Z,8.45
2018-05-26T01:50:51.057Z,8.45
2018-05-26T01:51:51.370Z,8.41
2018-05-26T01:52:51.835Z,8.39
2018-05-26T01:53:52.306Z,8.38
2018-05-26T01:54:52.777Z,8.36
2018-05-26T01:55:53.252Z,8.37
2018-05-26T01:56:53.718Z,8.34
2018-05-26T01:57:54.188Z,8.34
2018-05-26T01:58:54.659Z,8.32
2018-05-26T01:59:55.131Z,8.31
2018-05-26T02:00:55.603Z,8.30
2018-05-26T02:01:56.079Z,8.29
2018-05-26T02:02:56.544Z,8.26
2018-05-26T02:03:57.015Z,8.26
2018-05-26T02:04:57.484Z,8.24
2018-05-26T02:05:58.013Z,8.24
2018-05-26T02:06:58.428Z,8.22
2018-05-26T02:07:58.903Z,8.22
2018-05-26T02:08:59.374Z,8.22
2018-05-26T02:09:59.845Z,8.19
2018-05-26T02:11:00.315Z,8.18
2018-05-26T02:12:00.787Z,8.17
2018-05-26T02:13:01.258Z,8.17
2018-05-26T02:14:01.732Z,8.16
2018-05-26T02:15:02.205Z,8.14
2018-05-26T02:16:02.931Z,8.14
2018-05-26T02:17:03.153Z,8.11
2018-05-26T02:18:03.621Z,8.12
2018-05-26T02:19:04.095Z,8.10
2018-05-26T02:20:04.569Z,8.09
2018-05-26T02:21:05.041Z,8.08
2018-05-26T02:22:05.513Z,8.08
2018-05-26T02:23:05.986Z,8.08
2018-05-26T02:24:06.462Z,8.05
2018-05-26T02:25:06.940Z,8.06
2018-05-26T02:26:07.408Z,8.05
2018-05-26T02:27:07.885Z,8.04
2018-05-26T02:28:08.356Z,8.02
2018-05-26T02:29:08.832Z,8.02
2018-05-26T02:30:09.305Z,8.00
2018-05-26T02:31:09.780Z,8.01
2018-05-26T02:32:10.266Z,8.00
2018-05-26T02:33:10.727Z,8.00
2018-05-26T02:34:11.204Z,7.98
2018-05-26T02:35:11.677Z,7.98
2018-05-26T02:36:12.303Z,7.98
2018-05-26T02:37:12.625Z,7.98
2018-05-26T02:38:13.101Z,7.96
2018-05-26T02:39:13.582Z,7.95
2018-05-26T02:40:14.050Z,7.94
2018-05-26T02:41:14.539Z,7.94
2018-05-26T02:42:14.997Z,7.94
2018-05-26T02:43:15.471Z,7.93
2018-05-26T02:44:15.945Z,7.92
2018-05-26T02:45:16.416Z,7.91
2018-05-26T02:46:16.889Z,7.90
2018-05-26T02:47:17.362Z,7.90
2018-05-26T02:48:17.837Z,7.89
2018-05-26T02:49:18.308Z,7.86
2018-05-26T02:50:18.782Z,7.86
2018-05-26T02:51:19.456Z,7.84
2018-05-26T02:52:19.724Z,7.84
2018-05-26T02:53:20.196Z,7.83
2018-05-26T02:54:20.668Z,7.80
2018-05-26T02:55:21.139Z,7.78
2018-05-26T02:56:21.610Z,7.77
2018-05-26T02:57:22.081Z,7.75
2018-05-26T02:58:22.552Z,7.74
2018-05-26T02:59:23.028Z,7.72
2018-05-26T03:00:23.495Z,7.70
2018-05-26T03:01:24.168Z,7.69
2018-05-26T03:02:24.435Z,7.68
2018-05-26T03:03:24.911Z,7.67
2018-05-26T03:04:25.391Z,7.66
2018-05-26T03:05:25.848Z,7.62
2018-05-26T03:06:26.370Z,7.62
2018-05-26T03:07:26.788Z,7.60
2018-05-26T03:08:27.260Z,7.58
2018-05-26T03:09:27.730Z,7.56
2018-05-26T03:10:28.200Z,7.54
2018-05-26T03:11:28.723Z,7.52
2018-05-26T03:12:29.142Z,7.50
2018-05-26T03:13:29.613Z,7.50
2018-05-26T03:14:30.085Z,7.49
2018-05-26T03:15:30.556Z,7.48
2018-05-26T03:16:31.027Z,7.45
2018-05-26T03:17:31.498Z,7.44
2018-05-26T03:18:31.969Z,7.42
2018-05-26T03:19:32.440Z,7.40
2018-05-26T03:20:32.912Z,7.39
2018-05-26T03:21:33.384Z,7.37
2018-05-26T03:22:33.855Z,7.37
2018-05-26T03:23:34.329Z,7.35
2018-05-26T03:24:34.801Z,7.34
2018-05-26T03:25:35.275Z,7.33
2018-05-26T03:26:35.745Z,7.31
2018-05-26T03:27:36.219Z,7.31
2018-05-26T03:28:36.690Z,7.30
2018-05-26T03:29:37.161Z,7.29
2018-05-26T03:30:37.636Z,7.28
2018-05-26T03:31:38.158Z,7.26
2018-05-26T03:32:38.583Z,7.25
2018-05-26T03:33:39.057Z,7.25
2018-05-26T03:34:39.532Z,7.22
2018-05-26T03:35:40.003Z,7.20
2018-05-26T03:36:40.477Z,7.19
2018-05-26T03:37:40.949Z,7.19
2018-05-26T03:38:41.423Z,7.19
2018-05-26T03:39:41.898Z,7.18
2018-05-26T03:40:42.373Z,7.16
2018-05-26T03:41:42.847Z,7.16
2018-05-26T03:42:43.319Z,7.15
2018-05-26T03:43:43.794Z,7.16
2018-05-26T03:44:44.270Z,7.14
2018-05-26T03:45:44.744Z,7.14
2018-05-26T03:46:45.269Z,7.12
2018-05-26T03:47:45.690Z,7.12
2018-05-26T03:48:46.174Z,7.10
2018-05-26T03:49:46.640Z,7.10
2018-05-26T03:50:47.116Z,7.10
2018-05-26T03:51:47.742Z,7.10
2018-05-26T03:52:48.062Z,7.08
2018-05-26T03:53:48.534Z,7.08
2018-05-26T03:54:49.009Z,7.08
2018-05-26T03:55:49.482Z,7.10
2018-05-26T03:56:49.958Z,7.08
2018-05-26T03:57:50.431Z,7.08
2018-05-26T03:58:50.904Z,7.08
2018-05-26T03:59:51.376Z,7.09
2018-05-26T04:00:51.854Z,7.09
2018-05-26T04:01:52.325Z,7.10
2018-05-26T04:02:52.794Z,7.10
2018-05-26T04:03:53.266Z,7.10
2018-05-26T04:04:53.738Z,7.11
2018-05-26T04:05:54.271Z,7.12
2018-05-26T04:06:54.684Z,7.12
2018-05-26T04:07:55.151Z,7.13
2018-05-26T04:08:55.624Z,7.16
2018-05-26T04:09:56.095Z,7.16
2018-05-26T04:10:56.567Z,7.17
2018-05-26T04:11:57.037Z,7.19
2018-05-26T04:12:57.508Z,7.20
2018-05-26T04:13:57.979Z,7.22
2018-05-26T04:14:58.451Z,7.23
2018-05-26T04:15:58.923Z,7.25
2018-05-26T04:16:59.394Z,7.28
2018-05-26T04:17:59.862Z,7.28
2018-05-26T04:19:00.333Z,7.32
2018-05-26T04:20:00.808Z,7.35
2018-05-26T04:21:01.277Z,7.36
2018-05-26T04:22:01.745Z,7.38
2018-05-26T04:23:02.222Z,7.42
2018-05-26T04:24:02.689Z,7.43
2018-05-26T04:25:03.159Z,7.46
2018-05-26T04:26:03.765Z,7.48
2018-05-26T04:27:04.103Z,7.50
2018-05-26T04:28:04.573Z,7.54
2018-05-26T04:29:05.046Z,7.56
2018-05-26T04:30:05.518Z,7.59
2018-05-26T04:31:05.998Z,7.62
2018-05-26T04:32:06.463Z,7.64
2018-05-26T04:33:06.940Z,7.68
2018-05-26T04:34:07.407Z,7.71
2018-05-26T04:35:07.879Z,7.75
2018-05-26T04:36:08.353Z,7.80
2018-05-26T04:37:08.877Z,7.80
2018-05-26T04:38:09.304Z,7.86
2018-05-26T04:39:09.773Z,7.90
2018-05-26T04:40:10.247Z,7.92
2018-05-26T04:41:10.720Z,7.96
2018-05-26T04:42:11.345Z,8.01
2018-05-26T04:43:11.668Z,8.04
2018-05-26T04:44:12.140Z,8.08
2018-05-26T04:45:12.616Z,8.13
2018-05-26T04:46:13.093Z,8.16
2018-05-26T04:47:13.567Z,8.20
2018-05-26T04:48:14.040Z,8.23
2018-05-26T04:49:14.516Z,8.27
2018-05-26T04:50:14.990Z,8.30
2018-05-26T04:51:15.464Z,8.36
2018-05-26T04:52:15.940Z,8.38
2018-05-26T04:53:16.415Z,8.44
2018-05-26T04:54:16.892Z,8.47
2018-05-26T04:55:17.365Z,8.53
2018-05-26T04:56:17.839Z,8.57
2018-05-26T04:57:18.316Z,8.60
2018-05-26T04:58:18.790Z,8.64
2018-05-26T04:59:19.264Z,8.70
2018-05-26T05:00:19.740Z,8.74
2018-05-26T05:01:20.220Z,8.78
2018-05-26T05:02:20.687Z,8.82
2018-05-26T05:03:21.167Z,8.88
2018-05-26T05:04:21.638Z,8.92
2018-05-26T05:05:22.112Z,8.97
2018-05-26T05:06:22.585Z,9.02
2018-05-26T05:07:23.109Z,9.07
2018-05-26T05:08:23.540Z,9.11
2018-05-26T05:09:24.006Z,9.17
2018-05-26T05:10:24.478Z,9.22
2018-05-26T05:11:24.953Z,9.26
2018-05-26T05:12:25.629Z,9.30
2018-05-26T05:13:25.899Z,9.36
2018-05-26T05:14:26.373Z,9.40
2018-05-26T05:15:26.845Z,9.44
2018-05-26T05:16:27.317Z,9.50
2018-05-26T05:17:27.792Z,9.55
2018-05-26T05:18:28.262Z,9.60
2018-05-26T05:19:28.734Z,9.65
2018-05-26T05:20:29.206Z,9.70
2018-05-26T05:21:29.682Z,9.75
2018-05-26T05:22:30.149Z,9.80
2018-05-26T05:23:30.622Z,9.85
2018-05-26T05:24:31.092Z,9.90
2018-05-26T05:25:31.565Z,9.96
2018-05-26T05:26:32.173Z,10.00
2018-05-26T05:27:32.507Z,10.04
2018-05-26T05:28:32.982Z,10.10
2018-05-26T05:29:33.451Z,10.17
2018-05-26T05:30:33.923Z,10.20
2018-05-26T05:31:34.394Z,10.26
2018-05-26T05:32:34.955Z,10.30
2018-05-26T05:33:35.339Z,10.36
2018-05-26T05:34:35.809Z,10.41
2018-05-26T05:35:36.282Z,10.45
2018-05-26T05:36:36.754Z,10.51
2018-05-26T05:37:37.266Z,10.57
2018-05-26T05:38:37.698Z,10.62
2018-05-26T05:39:38.175Z,10.66
2018-05-26T05:40:38.645Z,10.72
2018-05-26T05:41:39.118Z,10.78
2018-05-26T05:42:39.593Z,10.82
2018-05-26T05:43:40.065Z,10.88
2018-05-26T05:44:40.541Z,10.92
2018-05-26T05:45:41.014Z,10.98
2018-05-26T05:46:41.488Z,11.02
2018-05-26T05:47:42.020Z,11.06
2018-05-26T05:48:42.439Z,11.12
2018-05-26T05:49:42.916Z,11.17
2018-05-26T05:50:43.388Z,11.21
2018-05-26T05:51:43.863Z,11.26
2018-05-26T05:52:44.541Z,11.32
2018-05-26T05:53:44.814Z,11.36
2018-05-26T05:54:45.291Z,11.40
2018-05-26T05:55:45.766Z,11.46
2018-05-26T05:56:46.243Z,11.51
2018-05-26T05:57:46.718Z,11.55
2018-05-26T05:58:47.196Z,11.60
2018-05-26T05:59:47.671Z,11.65
2018-05-26T06:00:48.146Z,11.70
2018-05-26T06:01:48.622Z,11.74
2018-05-26T06:02:49.097Z,11.78
2018-05-26T06:03:49.573Z,11.83
2018-05-26T06:04:50.048Z,11.87
2018-05-26T06:05:50.574Z,11.91
2018-05-26T06:06:51.000Z,11.96
2018-05-26T06:07:51.526Z,12.01
2018-05-26T06:08:51.994Z,12.04
2018-05-26T06:09:52.426Z,12.08
2018-05-26T06:10:52.903Z,12.13
2018-05-26T06:11:53.380Z,12.17
2018-05-26T06:12:54.003Z,12.22
2018-05-26T06:13:54.328Z,12.24
2018-05-26T06:14:54.860Z,12.28
2018-05-26T06:15:55.275Z,12.32
2018-05-26T06:16:55.751Z,12.35
2018-05-26T06:17:56.276Z,12.40
2018-05-26T06:18:56.699Z,12.43
2018-05-26T06:19:57.175Z,12.47
2018-05-26T06:20:57.648Z,12.52
2018-05-26T06:21:58.120Z,12.56
2018-05-26T06:22:58.593Z,12.61
2018-05-26T06:23:59.068Z,12.66
2018-05-26T06:24:59.541Z,12.68
2018-05-26T06:26:00.015Z,12.73
2018-05-26T06:27:00.486Z,12.78
2018-05-26T06:28:01.015Z,12.82
2018-05-26T06:29:01.434Z,12.86
2018-05-26T06:30:01.913Z,12.91
2018-05-26T06:31:02.380Z,12.95
2018-05-26T06:32:02.851Z,12.99
2018-05-26T06:33:03.324Z,13.04
2018-05-26T06:34:03.798Z,13.10
2018-05-26T06:35:04.267Z,13.14
2018-05-26T06:36:04.740Z,13.17
2018-05-26T06:37:05.213Z,13.22
2018-05-26T06:38:05.689Z,13.26
2018-05-26T06:39:06.161Z,13.31
2018-05-26T06:40:06.630Z,13.36
2018-05-26T06:41:07.102Z,13.41
2018-05-26T06:42:07.574Z,13.42
2018-05-26T06:43:08.047Z,13.46
2018-05-26T06:44:08.519Z,13.52
2018-05-26T06:45:08.991Z,13.57
2018-05-26T06:46:09.463Z,13.60
2018-05-26T06:47:09.937Z,13.64
2018-05-26T06:48:10.463Z,13.68
2018-05-26T06:49:10.883Z,13.72
2018-05-26T06:50:11.356Z,13.76
2018-05-26T06:51:11.875Z,13.79
2018-05-26T06:52:12.300Z,13.83
2018-05-26T06:53:12.777Z,13.87
2018-05-26T06:54:13.249Z,13.90
2018-05-26T06:55:13.723Z,13.95
2018-05-26T06:56:14.201Z,13.99
2018-05-26T06:57:14.672Z,14.02
2018-05-26T06:58:15.351Z,14.07
2018-05-26T06:59:15.621Z,14.10
2018-05-26T07:00:16.109Z,14.16
2018-05-26T07:01:16.572Z,14.20
2018-05-26T07:02:17.046Z,14.22
2018-05-26T07:03:17.523Z,14.28
2018-05-26T07:04:17.999Z,14.31
2018-05-26T07:05:18.475Z,14.36
2018-05-26T07:06:18.953Z,14.40
2018-05-26T07:07:19.426Z,14.44
2018-05-26T07:08:19.913Z,14.48
2018-05-26T07:09:20.380Z,14.51
2018-05-26T07:10:20.856Z,14.56
2018-05-26T07:11:21.334Z,14.59
2018-05-26T07:12:21.809Z,14.63
2018-05-26T07:13:22.291Z,14.68
2018-05-26T07:14:22.761Z,14.71
2018-05-26T07:15:23.238Z,14.76
2018-05-26T07:16:23.713Z,14.78
2018-05-26T07:17:24.189Z,14.84
2018-05-26T07:18:24.668Z,14.86
2018-05-26T07:19:25.154Z,14.89
2018-05-26T07:20:25.619Z,14.94
2018-05-26T07:21:26.092Z,14.97
2018-05-26T07:22:26.569Z,15.00
2018-05-26T07:23:27.197Z,15.04
2018-05-26T07:24:27.521Z,15.07
2018-05-26T07:25:27.994Z,15.10
2018-05-26T07:26:28.471Z,15.14
2018-05-26T07:27:28.954Z,15.18
2018-05-26T07:28:29.420Z,15.21
2018-05-26T07:29:29.895Z,15.24
2018-05-26T07:30:30.371Z,15.28
2018-05-26T07:31:30.845Z,15.34
2018-05-26T07:32:31.324Z,15.38
2018-05-26T07:33:31.950Z,15.40
2018-05-26T07:34:32.269Z,15.44
2018-05-26T07:35:32.743Z,15.48
2018-05-26T07:36:33.222Z,15.52
2018-05-26T07:37:33.692Z,15.56
2018-05-26T07:38:34.165Z,15.60
2018-05-26T07:39:34.638Z,15.63
2018-05-26T07:40:35.111Z,15.68
2018-05-26T07:41:35.585Z,15.71
2018-05-26T07:42:36.061Z,15.75
2018-05-26T07:43:36.531Z,15.79
2018-05-26T07:44:37.007Z,15.82
2018-05-26T07:45:37.479Z,15.88
2018-05-26T07:46:37.955Z,15.92
2018-05-26T07:47:38.425Z,15.94
2018-05-26T07:48:38.949Z,16.00
2018-05-26T07:49:39.372Z,16.03
2018-05-26T07:50:39.844Z,16.07
2018-05-26T07:51:40.317Z,16.12
2018-05-26T07:52:40.789Z,16.15
2018-05-26T07:53:41.264Z,16.19
2018-05-26T07:54:41.736Z,16.22
2018-05-26T07:55:42.208Z,16.25
2018-05-26T07:56:42.679Z,16.30
2018-05-26T07:58:43.718Z,16.36
2018-05-26T07:59:44.097Z,16.40
2018-05-26T08:00:44.571Z,16.44
2018-05-26T08:01:45.040Z,16.48
2018-05-26T08:02:45.516Z,16.52
2018-05-26T08:03:45.986Z,16.56
2018-05-26T08:04:46.456Z,16.62
2018-05-26T08:05:46.930Z,16.65
2018-05-26T08:06:47.401Z,16.68
2018-05-26T08:07:47.874Z,16.73
2018-05-26T08:08:48.396Z,16.78
2018-05-26T08:09:48.818Z,16.83
2018-05-26T08:10:49.326Z,16.88
2018-05-26T08:11:49.763Z,16.92
2018-05-26T08:12:50.237Z,16.97
2018-05-26T08:13:50.710Z,17.02
2018-05-26T08:14:51.185Z,17.07
2018-05-26T08:15:51.658Z,17.12
2018-05-26T08:16:52.131Z,17.18
2018-05-26T08:17:52.609Z,17.24
2018-05-26T08:18:53.080Z,17.29
2018-05-26T08:19:53.554Z,17.36
2018-05-26T08:20:54.032Z,17.42
2018-05-26T08:21:54.504Z,17.48
2018-05-26T08:22:54.980Z,17.56
2018-05-26T08:23:55.454Z,17.62
2018-05-26T08:24:55.932Z,17.67
2018-05-26T08:25:56.407Z,17.72
2018-05-26T08:26:56.883Z,17.77
2018-05-26T08:27:57.358Z,17.82
2018-05-26T08:28:57.835Z,17.86
2018-05-26T08:29:58.313Z,17.89
2018-05-26T08:30:58.790Z,17.94
2018-05-26T08:31:59.267Z,17.98
2018-05-26T08:32:59.742Z,18.02
2018-05-26T08:34:00.271Z,18.04
2018-05-26T08:35:00.699Z,18.09
2018-05-26T08:36:01.172Z,18.12
2018-05-26T08:37:01.651Z,18.15
2018-05-26T08:38:02.127Z,18.20
2018-05-26T08:39:02.756Z,18.24
2018-05-26T08:40:03.080Z,18.28
2018-05-26T08:41:03.557Z,18.30
2018-05-26T08:42:04.035Z,18.33
2018-05-26T08:43:04.513Z,18.36
2018-05-26T08:44:04.988Z,18.40
2018-05-26T08:45:05.468Z,18.42
2018-05-26T08:46:05.943Z,18.48
2018-05-26T08:47:06.419Z,18.54
2018-05-26T08:48:06.898Z,18.57
2018-05-26T08:49:07.574Z,18.60
2018-05-26T08:50:07.848Z,18.66
2018-05-26T08:51:08.326Z,18.70
2018-05-26T08:52:08.803Z,18.75
2018-05-26T08:53:09.277Z,18.81
2018-05-26T08:54:09.751Z,18.85
2018-05-26T08:55:10.227Z,18.92
2018-05-26T08:56:10.703Z,18.98
2018-05-26T08:57:11.178Z,19.04
2018-05-26T08:58:11.654Z,19.12
2018-05-26T08:59:12.180Z,19.18
2018-05-26T09:00:12.607Z,19.25
2018-05-26T09:01:13.082Z,19.34
2018-05-26T09:02:13.572Z,19.39
2018-05-26T09:03:14.031Z,19.44
2018-05-26T09:04:14.659Z,19.48
2018-05-26T09:05:14.982Z,19.52
2018-05-26T09:06:15.459Z,19.55
2018-05-26T09:07:15.934Z,19.60
2018-05-26T09:08:16.408Z,19.61
2018-05-26T09:09:16.881Z,19.63
2018-05-26T09:10:17.357Z,19.66
2018-05-26T09:11:17.863Z,19.70
2018-05-26T09:12:18.305Z,19.70
2018-05-26T09:13:18.779Z,19.73
2018-05-26T09:14:19.255Z,19.74
2018-05-26T09:15:19.730Z,19.75
2018-05-26T09:16:20.202Z,19.77
2018-05-26T09:17:20.677Z,19.76
2018-05-26T09:18:21.155Z,19.78
2018-05-26T09:19:21.626Z,19.77
2018-05-26T09:20:22.099Z,19.76
2018-05-26T09:21:22.574Z,19.76
2018-05-26T09:22:23.056Z,19.75
2018-05-26T09:23:23.522Z,19.75
2018-05-26T09:24:23.995Z,19.72
2018-05-26T09:25:24.503Z,19.71
2018-05-26T09:26:24.959Z,19.70
2018-05-26T09:27:25.416Z,19.68
2018-05-26T09:28:25.893Z,19.66
2018-05-26T09:29:26.416Z,19.62
2018-05-26T09:30:26.837Z,19.60
2018-05-26T09:31:27.311Z,19.56
2018-05-26T09:32:27.784Z,19.53
2018-05-26T09:33:28.266Z,19.50
2018-05-26T09:34:28.733Z,19.49
2018-05-26T09:35:29.205Z,19.46
2018-05-26T09:36:29.675Z,19.44
2018-05-26T09:37:30.151Z,19.42
2018-05-26T09:38:30.623Z,19.40
2018-05-26T09:39:31.095Z,19.38
2018-05-26T09:40:31.569Z,19.39
2018-05-26T09:41:32.043Z,19.38
2018-05-26T09:42:32.515Z,19.36
2018-05-26T09:43:32.990Z,19.36
2018-05-26T09:44:33.460Z,19.38
2018-05-26T09:45:33.932Z,19.37
2018-05-26T09:46:34.407Z,19.38
2018-05-26T09:47:34.880Z,19.38
2018-05-26T09:48:35.357Z,19.39
2018-05-26T09:49:35.825Z,19.40
2018-05-26T09:50:36.296Z,19.41
2018-05-26T09:51:36.771Z,19.41
2018-05-26T09:52:37.244Z,19.42
2018-05-26T09:53:37.715Z,19.43
2018-05-26T09:54:38.238Z,19.42
2018-05-26T09:55:38.661Z,19.42
2018-05-26T09:56:39.132Z,19.42
2018-05-26T09:57:39.607Z,19.42
2018-05-26T09:58:40.079Z,19.44
2018-05-26T09:59:40.601Z,19.45
2018-05-26T10:00:41.022Z,19.45
2018-05-26T10:01:41.498Z,19.45
2018-05-26T10:02:42.171Z,19.45
2018-05-26T10:03:42.442Z,19.45
2018-05-26T10:04:42.916Z,19.46
2018-05-26T10:05:43.388Z,19.48
2018-05-26T10:06:43.859Z,19.46
2018-05-26T10:07:44.333Z,19.46
2018-05-26T10:08:44.803Z,19.46
2018-05-26T10:09:45.277Z,19.48
2018-05-26T10:10:45.750Z,19.48
2018-05-26T10:11:46.223Z,19.48
2018-05-26T10:12:46.695Z,19.48
2018-05-26T10:13:47.168Z,19.47
2018-05-26T10:14:47.639Z,19.48
2018-05-26T10:15:48.114Z,19.47
2018-05-26T10:16:48.584Z,19.47
2018-05-26T10:17:49.058Z,19.46
2018-05-26T10:18:49.531Z,19.47
2018-05-26T10:19:50.224Z,19.48
2018-05-26T10:20:50.474Z,19.47
2018-05-26T10:21:50.952Z,19.44
2018-05-26T10:22:51.419Z,19.45
2018-05-26T10:23:51.891Z,19.44
2018-05-26T10:24:52.363Z,19.44
2018-05-26T10:25:52.836Z,19.43
2018-05-26T10:26:53.309Z,19.43
2018-05-26T10:27:53.781Z,19.43
2018-05-26T10:28:54.253Z,19.43
2018-05-26T10:29:54.877Z,19.44
2018-05-26T10:30:55.198Z,19.43
2018-05-26T10:31:55.670Z,19.43
2018-05-26T10:32:56.144Z,19.42
2018-05-26T10:33:56.618Z,19.42
2018-05-26T10:34:57.140Z,19.43
2018-05-26T10:35:57.560Z,19.42
2018-05-26T10:36:58.031Z,19.42
2018-05-26T10:37:58.504Z,19.42
2018-05-26T10:38:58.976Z,19.43
2018-05-26T10:39:59.449Z,19.43
2018-05-26T10:40:59.921Z,19.44
2018-05-26T10:42:00.392Z,19.43
2018-05-26T10:43:00.865Z,19.44
2018-05-26T10:44:01.338Z,19.44
2018-05-26T10:45:01.814Z,19.44
2018-05-26T10:46:02.284Z,19.46
2018-05-26T10:47:02.756Z,19.45
2018-05-26T10:48:03.227Z,19.45
2018-05-26T10:49:03.702Z,19.48
2018-05-26T10:50:04.258Z,19.48
2018-05-26T10:51:04.646Z,19.49
2018-05-26T10:52:05.121Z,19.50
2018-05-26T10:53:05.592Z,19.50
2018-05-26T10:54:06.065Z,19.51
2018-05-26T10:55:06.589Z,19.52
2018-05-26T10:56:07.011Z,19.53
2018-05-26T10:57:07.484Z,19.54
2018-05-26T10:58:07.957Z,19.54
2018-05-26T11:00:08.907Z,19.55
2018-05-26T11:01:09.385Z,19.56
2018-05-26T11:02:09.856Z,19.57
2018-05-26T11:03:10.332Z,19.59
2018-05-26T11:04:10.845Z,19.61
2018-05-26T11:05:11.281Z,19.60
2018-05-26T11:06:11.756Z,19.59
2018-05-26T11:07:12.236Z,19.63
2018-05-26T11:08:12.707Z,19.63
2018-05-26T11:09:13.386Z,19.65
2018-05-26T11:10:13.671Z,19.65
2018-05-26T11:11:14.139Z,19.66
2018-05-26T11:12:14.618Z,19.67
2018-05-26T11:13:15.095Z,19.69
2018-05-26T11:14:15.570Z,19.69
2018-05-26T11:15:16.200Z,19.70
2018-05-26T11:16:16.637Z,19.72
2018-05-26T11:17:17.001Z,19.72
2018-05-26T11:18:17.481Z,19.72
2018-05-26T11:19:17.957Z,19.73
2018-05-26T11:20:18.479Z,19.75
2018-05-26T11:21:18.908Z,19.77
2018-05-26T11:22:19.386Z,19.78
2018-05-26T11:23:19.925Z,19.78
2018-05-26T11:24:20.388Z,19.80
2018-05-26T11:25:20.829Z,19.80
2018-05-26T11:26:21.298Z,19.80
2018-05-26T11:27:21.774Z,19.82
2018-05-26T11:28:22.255Z,19.83
2018-05-26T11:29:22.731Z,19.85
2018-05-26T11:30:23.207Z,19.85
2018-05-26T11:31:23.683Z,19.87
2018-05-26T11:32:24.161Z,19.89
2018-05-26T11:33:24.638Z,19.90
2018-05-26T11:34:25.112Z,19.92
2018-05-26T11:35:25.743Z,19.91
2018-05-26T11:36:26.068Z,19.94
2018-05-26T11:37:26.555Z,19.95
2018-05-26T11:38:27.021Z,19.96
2018-05-26T11:39:27.498Z,19.97
2018-05-26T11:40:27.974Z,19.98
2018-05-26T11:41:28.452Z,20.00
2018-05-26T11:42:28.928Z,20.02
2018-05-26T11:43:29.406Z,20.02
2018-05-26T11:44:29.884Z,20.05
2018-05-26T11:45:30.405Z,20.05
2018-05-26T11:46:30.831Z,20.07
2018-05-26T11:47:31.309Z,20.08
2018-05-26T11:48:31.785Z,20.08
2018-05-26T11:49:32.260Z,20.11
2018-05-26T11:50:32.738Z,20.10
2018-05-26T11:51:33.213Z,20.12
2018-05-26T11:52:33.688Z,20.14
2018-05-26T11:53:34.163Z,20.14
2018-05-26T11:54:34.640Z,20.16
2018-05-26T11:55:35.319Z,20.16
2018-05-26T11:56:35.595Z,20.18
2018-05-26T11:57:36.067Z,20.18
2018-05-26T11:58:36.545Z,20.20
2018-05-26T11:59:37.018Z,20.20
2018-05-26T12:00:37.546Z,20.20
2018-05-26T12:01:37.968Z,20.22
2018-05-26T12:02:38.445Z,20.22
2018-05-26T12:03:38.921Z,20.23
2018-05-26T12:04:39.395Z,20.24
2018-05-26T12:05:39.870Z,20.26
2018-05-26T12:06:40.345Z,20.27
2018-05-26T12:07:40.821Z,20.27
2018-05-26T12:08:41.297Z,20.28
2018-05-26T12:09:41.771Z,20.30
2018-05-26T12:10:42.245Z,20.31
2018-05-26T12:11:42.721Z,20.32
2018-05-26T12:12:43.196Z,20.35
2018-05-26T12:13:43.670Z,20.35
2018-05-26T12:14:44.148Z,20.36
2018-05-26T12:15:44.673Z,20.37
2018-05-26T12:16:45.097Z,20.38
2018-05-26T12:17:45.571Z,20.40
2018-05-26T12:18:46.045Z,20.40
2018-05-26T12:19:46.520Z,20.43
2018-05-26T12:20:47.146Z,20.45
2018-05-26T12:21:47.469Z,20.47
2018-05-26T12:22:47.948Z,20.47
2018-05-26T12:23:48.420Z,20.47
2018-05-26T12:24:48.893Z,20.49
2018-05-26T12:25:49.368Z,20.50
2018-05-26T12:26:49.870Z,20.52
2018-05-26T12:27:50.318Z,20.54
2018-05-26T12:28:50.794Z,20.54
2018-05-26T12:29:51.270Z,20.56
2018-05-26T12:30:51.741Z,20.57
2018-05-26T12:31:52.217Z,20.58
2018-05-26T12:32:52.690Z,20.60
2018-05-26T12:33:53.163Z,20.61
2018-05-26T12:34:53.639Z,20.64
2018-05-26T12:35:54.271Z,20.64
2018-05-26T12:36:54.594Z,20.67
2018-05-26T12:37:55.064Z,20.66
2018-05-26T12:38:55.540Z,20.68
2018-05-26T12:40:56.488Z,20.70
2018-05-26T12:41:56.959Z,20.72
2018-05-26T12:42:57.435Z,20.74
2018-05-26T12:43:57.911Z,20.74
2018-05-26T12:44:58.384Z,20.76
2018-05-26T12:45:58.909Z,20.76
2018-05-26T12:46:59.333Z,20.76
2018-05-26T12:47:59.807Z,20.77
2018-05-26T12:49:00.281Z,20.78
2018-05-26T12:50:00.758Z,20.80
2018-05-26T12:51:01.231Z,20.79
2018-05-26T12:52:01.705Z,20.81
2018-05-26T12:53:02.179Z,20.82
2018-05-26T12:54:02.652Z,20.82
2018-05-26T12:55:03.126Z,20.82
2018-05-26T12:56:03.803Z,20.83
2018-05-26T12:57:04.075Z,20.82
2018-05-26T12:58:04.550Z,20.84
2018-05-26T12:59:05.026Z,20.83
2018-05-26T13:00:05.497Z,20.83
2018-05-26T13:01:06.024Z,20.84
2018-05-26T13:02:06.444Z,20.86
2018-05-26T13:03:06.920Z,20.86
2018-05-26T13:04:07.598Z,20.88
2018-05-26T13:05:07.867Z,20.88
2018-05-26T13:06:08.434Z,20.90
2018-05-26T13:07:08.817Z,20.90
2018-05-26T13:08:09.289Z,20.90
2018-05-26T13:09:09.767Z,20.92
2018-05-26T13:10:10.236Z,20.92
2018-05-26T13:11:10.712Z,20.94
2018-05-26T13:12:11.187Z,20.94